Time;durP1;ratioP1;P1;durP2;ratioP2;P2;SDS_P1;SDS_P2;PMS_P1;PMS_P2;Temp;Humidity;BMP_temperature;BMP_pressure;BME280_temperature;BME280_humidity;BME280_pressure;Samples;Min_cycle;Max_cycle;Signal;HPM_P1;HPM_P2
2021/03/04 00:00:31;;;;;;;19.57;10.07;;;3.10;99.90;;;;;;5093607;28;20372;-74
2021/03/04 00:02:56;;;;;;;14.73;9.07;;;3.20;99.90;;;;;;5093267;28;20127;-74
2021/03/04 00:05:22;;;;;;;16.13;8.03;;;3.20;99.90;;;;;;5093299;28;20108;-75
2021/03/04 00:07:48;;;;;;;15.47;8.50;;;3.20;99.90;;;;;;5092878;28;20107;-75
2021/03/04 00:10:20;;;;;;;14.77;8.80;;;3.20;99.90;;;;;;5093264;28;20111;-75
2021/03/04 00:12:46;;;;;;;14.97;8.47;;;3.20;99.90;;;;;;5091666;28;20101;-75
2021/03/04 00:15:14;;;;;;;18.20;8.90;;;3.20;99.90;;;;;;5093145;28;20024;-75
2021/03/04 00:17:39;;;;;;;15.00;8.80;;;3.20;99.90;;;;;;5092716;28;20043;-75
2021/03/04 00:20:07;;;;;;;17.17;8.73;;;3.30;99.90;;;;;;5091334;28;20024;-75
2021/03/04 00:22:33;;;;;;;15.53;7.93;;;3.30;99.90;;;;;;5092883;28;20020;-75
2021/03/04 00:24:59;;;;;;;19.63;8.87;;;3.30;99.90;;;;;;5092693;28;20366;-76
2021/03/04 00:27:24;;;;;;;15.10;8.57;;;3.40;99.90;;;;;;5092600;28;20871;-76
2021/03/04 00:29:50;;;;;;;14.27;8.33;;;3.40;99.90;;;;;;5091560;28;20083;-76
2021/03/04 00:32:15;;;;;;;15.40;9.03;;;3.40;99.90;;;;;;5092329;28;20066;-76
2021/03/04 00:34:41;;;;;;;16.03;8.63;;;3.50;99.90;;;;;;5092357;28;20044;-76
2021/03/04 00:37:06;;;;;;;17.13;8.73;;;3.50;99.90;;;;;;5092419;28;20048;-76
2021/03/04 00:39:32;;;;;;;15.77;8.30;;;3.50;99.90;;;;;;5092496;28;20101;-75
2021/03/04 00:41:58;;;;;;;16.27;8.43;;;3.60;99.90;;;;;;5092458;28;20032;-75
2021/03/04 00:44:23;;;;;;;14.13;7.47;;;3.50;99.90;;;;;;5090741;28;20039;-75
2021/03/04 00:46:49;;;;;;;13.40;8.60;;;3.60;99.90;;;;;;5092348;28;20061;-76
2021/03/04 00:49:14;;;;;;;13.87;7.43;;;3.60;99.90;;;;;;5092114;28;20036;-76
2021/03/04 00:51:40;;;;;;;14.37;8.67;;;3.60;99.90;;;;;;5092116;28;20044;-76
2021/03/04 00:54:07;;;;;;;13.07;7.70;;;3.60;99.90;;;;;;5092656;28;20026;-75
2021/03/04 00:56:33;;;;;;;14.30;7.97;;;3.60;99.90;;;;;;5092225;28;20024;-76
2021/03/04 00:58:59;;;;;;;14.63;8.00;;;3.60;99.90;;;;;;5090898;28;20111;-75
2021/03/04 01:01:24;;;;;;;16.70;8.27;;;3.60;99.90;;;;;;5092073;28;20148;-76
2021/03/04 01:03:50;;;;;;;13.53;7.70;;;3.60;99.90;;;;;;5092259;28;20036;-76
2021/03/04 01:06:17;;;;;;;13.20;7.27;;;3.50;99.90;;;;;;5091694;28;20028;-76
2021/03/04 01:08:45;;;;;;;15.00;8.53;;;3.50;99.90;;;;;;5091974;28;20089;-76
2021/03/04 01:11:11;;;;;;;15.70;7.93;;;3.50;99.90;;;;;;5092028;28;20028;-76
2021/03/04 01:13:36;;;;;;;14.27;7.50;;;3.50;99.90;;;;;;5092044;28;20035;-76
2021/03/04 01:16:02;;;;;;;12.83;7.10;;;3.50;99.90;;;;;;5091766;28;20024;-76
2021/03/04 01:18:28;;;;;;;12.27;7.37;;;3.40;99.90;;;;;;5092045;28;20843;-76
2021/03/04 01:20:54;;;;;;;14.53;7.43;;;3.40;99.90;;;;;;5090447;28;20035;-76
2021/03/04 01:23:19;;;;;;;16.40;8.40;;;3.40;99.90;;;;;;5092009;28;20117;-76
2021/03/04 01:25:45;;;;;;;13.23;7.87;;;3.40;99.90;;;;;;5092589;28;20063;-73
2021/03/04 01:28:10;;;;;;;14.93;8.00;;;3.40;99.90;;;;;;5093114;28;20458;-74
2021/03/04 01:30:36;;;;;;;16.67;7.87;;;3.30;99.90;;;;;;5093195;28;20028;-74
2021/03/04 01:33:02;;;;;;;14.93;7.77;;;3.30;99.90;;;;;;5093154;28;20024;-74
2021/03/04 01:35:28;;;;;;;13.50;7.43;;;3.30;99.90;;;;;;5093155;28;20503;-74
2021/03/04 01:37:56;;;;;;;16.53;7.97;;;3.30;99.90;;;;;;5093172;28;20020;-73
2021/03/04 01:40:22;;;;;;;14.57;7.10;;;3.20;99.90;;;;;;5093061;28;20024;-74
2021/03/04 01:42:49;;;;;;;12.43;8.07;;;3.20;99.90;;;;;;5093157;28;20529;-73
2021/03/04 01:45:15;;;;;;;16.17;8.27;;;3.20;99.90;;;;;;5092953;28;20396;-74
2021/03/04 01:47:46;;;;;;;14.70;7.70;;;3.20;99.90;;;;;;5092539;28;20028;-74
2021/03/04 01:50:13;;;;;;;12.30;7.83;;;3.20;99.90;;;;;;5091781;28;20077;-73
2021/03/04 01:52:38;;;;;;;12.20;7.10;;;3.20;99.90;;;;;;5091353;28;20109;-73
2021/03/04 01:55:05;;;;;;;19.13;8.07;;;3.20;99.90;;;;;;5091918;28;20480;-74
2021/03/04 01:57:31;;;;;;;13.17;7.00;;;3.10;99.90;;;;;;5092222;28;20020;-73
2021/03/04 01:59:57;;;;;;;11.53;7.00;;;3.10;99.90;;;;;;5091779;28;20073;-74
2021/03/04 02:02:23;;;;;;;10.90;6.87;;;3.10;99.90;;;;;;5093046;28;20024;-74
2021/03/04 02:04:50;;;;;;;13.93;7.17;;;3.20;99.90;;;;;;5092667;28;20585;-74
2021/03/04 02:07:54;;;;;;;11.33;7.07;;;3.20;99.90;;;;;;5092542;28;20024;-73
2021/03/04 02:10:49;;;;;;;13.23;7.27;;;3.20;99.90;;;;;;5092111;28;20055;-73
2021/03/04 02:13:35;;;;;;;22.52;7.28;;;3.20;99.90;;;;;;5091575;28;20118;-74
2021/03/04 02:16:14;;;;;;;15.03;7.00;;;3.30;99.90;;;;;;5092411;28;20017;-74
2021/03/04 02:18:52;;;;;;;11.90;7.57;;;3.30;99.90;;;;;;5092447;28;20030;-74
2021/03/04 02:21:56;;;;;;;11.80;6.87;;;3.30;99.90;;;;;;5091255;28;20024;-74
2021/03/04 02:24:28;;;;;;;9.37;6.60;;;3.30;99.90;;;;;;5058268;28;20111;-74
2021/03/04 02:27:03;;;;;;;13.90;7.07;;;3.30;99.90;;;;;;5092676;28;20116;-74
2021/03/04 02:29:51;;;;;;;10.40;6.38;;;3.30;99.90;;;;;;5091545;28;20356;-74
2021/03/04 02:32:25;;;;;;;14.07;7.10;;;3.30;99.90;;;;;;5092411;28;20081;-74
2021/03/04 02:35:12;;;;;;;12.10;6.37;;;3.40;99.90;;;;;;5092683;28;20077;-74
2021/03/04 02:37:42;;;;;;;10.37;6.40;;;3.40;99.90;;;;;;5091220;28;20033;-74
2021/03/04 02:40:10;;;;;;;11.00;6.20;;;3.50;99.90;;;;;;5091257;28;20580;-74
2021/03/04 02:42:39;;;;;;;14.03;6.80;;;3.50;99.90;;;;;;5092325;28;20032;-74
2021/03/04 02:45:07;;;;;;;13.37;6.50;;;3.50;99.90;;;;;;5092331;28;20032;-74
2021/03/04 02:47:33;;;;;;;9.93;6.57;;;3.50;99.90;;;;;;5092506;28;20020;-74
2021/03/04 02:49:59;;;;;;;10.40;6.47;;;3.60;99.90;;;;;;5092458;28;20024;-74
2021/03/04 02:52:26;;;;;;;13.00;6.30;;;3.60;99.90;;;;;;5092138;28;20048;-74
2021/03/04 02:54:52;;;;;;;12.33;5.50;;;3.70;99.90;;;;;;5092491;28;20020;-74
2021/03/04 02:57:20;;;;;;;15.27;6.60;;;3.70;99.90;;;;;;5092524;28;20461;-74
2021/03/04 02:59:47;;;;;;;11.37;6.40;;;3.70;99.90;;;;;;5092180;28;20087;-74
2021/03/04 03:02:13;;;;;;;11.70;6.50;;;3.80;99.90;;;;;;5090929;28;20027;-74
2021/03/04 03:04:41;;;;;;;11.70;6.33;;;3.90;99.90;;;;;;5092037;28;20354;-74
2021/03/04 03:07:08;;;;;;;10.73;6.13;;;3.90;99.90;;;;;;5092988;28;20057;-74
2021/03/04 03:09:36;;;;;;;10.63;6.37;;;3.90;99.90;;;;;;5096405;28;20020;-74
2021/03/04 03:12:03;;;;;;;9.23;6.10;;;4.00;99.90;;;;;;5096360;28;20085;-74
2021/03/04 03:14:29;;;;;;;10.60;6.23;;;4.00;99.90;;;;;;5096389;28;20023;-74
2021/03/04 03:16:54;;;;;;;8.97;5.57;;;4.10;99.90;;;;;;5094888;28;20024;-74
2021/03/04 03:19:20;;;;;;;10.77;6.37;;;4.10;99.90;;;;;;5096302;28;20031;-74
2021/03/04 03:21:46;;;;;;;11.83;5.70;;;4.10;99.90;;;;;;5095168;28;20028;-74
2021/03/04 03:24:11;;;;;;;11.57;6.63;;;4.10;99.90;;;;;;5096364;28;20024;-74
2021/03/04 03:26:37;;;;;;;11.40;5.73;;;4.10;99.90;;;;;;5096255;28;20376;-74
2021/03/04 03:29:03;;;;;;;9.67;5.77;;;4.20;99.90;;;;;;5095942;28;20027;-74
2021/03/04 03:31:30;;;;;;;12.67;6.53;;;4.10;99.90;;;;;;5095903;28;20034;-74
2021/03/04 03:33:57;;;;;;;13.47;6.47;;;4.20;99.90;;;;;;5095968;28;20020;-74
2021/03/04 03:36:24;;;;;;;11.23;6.20;;;4.20;99.90;;;;;;5095982;28;20031;-74
2021/03/04 03:38:50;;;;;;;12.67;6.03;;;4.20;99.90;;;;;;5095986;28;20107;-74
2021/03/04 03:41:20;;;;;;;10.30;5.97;;;4.20;99.90;;;;;;5095995;28;20082;-74
2021/03/04 03:43:47;;;;;;;11.33;5.53;;;4.20;99.90;;;;;;5095709;28;20418;-73
2021/03/04 03:46:13;;;;;;;10.17;5.33;;;4.20;99.90;;;;;;5095663;28;20388;-74
2021/03/04 03:48:40;;;;;;;11.43;6.13;;;4.20;99.90;;;;;;5095883;28;20039;-74
2021/03/04 03:51:06;;;;;;;13.87;6.43;;;4.20;99.90;;;;;;5094616;28;20108;-74
2021/03/04 03:53:32;;;;;;;9.27;6.10;;;4.10;99.90;;;;;;5096020;28;20024;-74
2021/03/04 03:55:58;;;;;;;11.83;6.00;;;4.20;99.90;;;;;;5095526;28;20016;-74
2021/03/04 03:58:28;;;;;;;10.13;5.87;;;4.10;99.90;;;;;;5095505;28;20032;-74
2021/03/04 04:00:55;;;;;;;13.10;6.07;;;4.10;99.90;;;;;;5095501;28;20032;-74
2021/03/04 04:03:25;;;;;;;13.20;7.10;;;4.10;99.90;;;;;;5093920;28;20062;-74
2021/03/04 04:05:50;;;;;;;11.17;6.33;;;4.10;99.90;;;;;;5094085;28;20020;-74
2021/03/04 04:08:20;;;;;;;11.53;6.17;;;4.10;99.90;;;;;;5093979;28;20058;-74
2021/03/04 04:10:47;;;;;;;12.40;6.40;;;4.10;99.90;;;;;;5095371;28;20024;-74
2021/03/04 04:13:16;;;;;;;14.10;5.77;;;4.10;99.90;;;;;;5095337;28;20016;-74
2021/03/04 04:15:42;;;;;;;12.53;6.27;;;4.10;99.90;;;;;;5094007;28;20024;-74
2021/03/04 04:18:09;;;;;;;11.80;5.63;;;4.10;99.90;;;;;;5095135;28;20038;-74
2021/03/04 04:20:36;;;;;;;11.27;5.53;;;4.10;99.90;;;;;;5092132;28;20141;-74
2021/03/04 04:23:02;;;;;;;11.67;6.20;;;4.10;99.90;;;;;;5094733;28;20091;-74
2021/03/04 04:25:28;;;;;;;15.00;6.20;;;4.10;99.90;;;;;;5094859;28;20111;-74
2021/03/04 04:27:55;;;;;;;10.77;5.43;;;4.10;99.90;;;;;;5095266;28;20024;-74
2021/03/04 04:30:23;;;;;;;12.77;5.17;;;4.00;99.90;;;;;;5094787;28;20047;-74
2021/03/04 04:32:48;;;;;;;10.47;5.73;;;4.10;99.90;;;;;;5094905;28;20027;-74
2021/03/04 04:35:15;;;;;;;14.47;6.10;;;4.00;99.90;;;;;;5093602;28;20091;-74
2021/03/04 04:37:41;;;;;;;16.07;5.70;;;4.00;99.90;;;;;;5093788;28;20031;-74
2021/03/04 04:40:08;;;;;;;12.23;6.10;;;4.10;99.90;;;;;;5093581;28;20047;-74
2021/03/04 04:42:35;;;;;;;14.10;6.23;;;4.00;99.90;;;;;;5093450;28;20034;-74
2021/03/04 04:45:02;;;;;;;12.90;6.20;;;4.10;99.90;;;;;;5093658;28;20035;-74
2021/03/04 04:47:28;;;;;;;17.10;7.30;;;4.10;99.90;;;;;;5094622;28;20074;-74
2021/03/04 04:49:53;;;;;;;20.83;7.70;;;4.00;99.90;;;;;;5094809;28;20055;-74
2021/03/04 04:52:19;;;;;;;16.67;8.00;;;4.00;99.90;;;;;;5093135;28;20044;-74
2021/03/04 04:54:46;;;;;;;14.10;8.07;;;4.10;99.90;;;;;;5094473;28;20085;-74
2021/03/04 04:57:12;;;;;;;21.30;7.20;;;4.10;99.90;;;;;;5094484;28;20065;-74
2021/03/04 04:59:38;;;;;;;16.47;6.70;;;4.10;99.90;;;;;;5093320;28;20372;-74
2021/03/04 05:02:03;;;;;;;11.67;6.53;;;4.20;99.90;;;;;;5094141;28;20031;-74
2021/03/04 05:04:29;;;;;;;18.50;6.80;;;4.20;99.90;;;;;;5094012;28;20039;-74
2021/03/04 05:06:54;;;;;;;12.60;7.00;;;4.30;99.90;;;;;;5094076;28;20414;-74
2021/03/04 05:09:20;;;;;;;18.83;7.30;;;4.30;99.90;;;;;;5094289;28;20035;-74
2021/03/04 05:11:45;;;;;;;14.13;7.23;;;4.40;99.90;;;;;;5093924;28;20023;-74
2021/03/04 05:14:11;;;;;;;13.57;7.23;;;4.40;99.90;;;;;;5093063;28;20118;-74
2021/03/04 05:16:36;;;;;;;17.47;7.00;;;4.50;99.90;;;;;;5092529;28;20407;-75
2021/03/04 05:19:02;;;;;;;14.17;6.20;;;4.50;99.90;;;;;;5092009;28;20364;-75
2021/03/04 05:21:28;;;;;;;16.70;6.80;;;4.50;99.90;;;;;;5090184;28;20028;-75
2021/03/04 05:23:53;;;;;;;17.17;6.00;;;4.50;99.90;;;;;;5089936;28;20028;-76
2021/03/04 05:26:19;;;;;;;10.43;5.20;;;4.50;99.90;;;;;;5090114;28;20016;-76
2021/03/04 05:28:44;;;;;;;12.10;6.33;;;4.60;99.90;;;;;;5090839;28;20036;-76
2021/03/04 05:31:10;;;;;;;9.73;6.00;;;4.60;99.90;;;;;;5090128;28;20024;-76
2021/03/04 05:33:35;;;;;;;9.53;4.80;;;4.60;99.90;;;;;;5090940;28;20677;-76
2021/03/04 05:36:01;;;;;;;9.30;4.87;;;4.70;99.90;;;;;;5090996;28;20102;-75
2021/03/04 05:38:27;;;;;;;9.87;5.50;;;4.70;99.90;;;;;;5089420;28;20110;-76
2021/03/04 05:40:53;;;;;;;11.23;5.93;;;4.70;99.90;;;;;;5090292;28;20085;-76
2021/03/04 05:43:19;;;;;;;12.57;5.90;;;4.70;99.90;;;;;;5089163;28;20074;-76
2021/03/04 05:45:48;;;;;;;16.37;6.40;;;4.60;99.90;;;;;;5090899;28;20028;-76
2021/03/04 05:48:18;;;;;;;11.93;5.83;;;4.60;99.90;;;;;;5087587;28;20099;-76
2021/03/04 05:50:48;;;;;;;12.07;6.10;;;4.60;99.90;;;;;;5090506;28;20119;-76
2021/03/04 05:53:17;;;;;;;15.27;6.00;;;4.50;99.90;;;;;;5088159;28;20485;-76
2021/03/04 05:55:44;;;;;;;13.90;5.67;;;4.50;99.90;;;;;;5090150;28;20364;-76
2021/03/04 05:58:10;;;;;;;15.10;5.87;;;4.50;99.90;;;;;;5089439;28;20040;-76
2021/03/04 06:00:37;;;;;;;13.70;6.17;;;4.50;99.90;;;;;;5091085;28;20369;-76
2021/03/04 06:03:07;;;;;;;18.13;5.83;;;4.50;99.90;;;;;;5093376;28;20024;-79
2021/03/04 06:05:33;;;;;;;19.00;6.07;;;4.50;99.90;;;;;;5091855;28;20054;-75
2021/03/04 06:08:01;;;;;;;14.80;5.83;;;4.50;99.90;;;;;;5086509;28;20024;-74
2021/03/04 06:10:28;;;;;;;14.87;5.53;;;4.50;99.90;;;;;;5089365;28;20020;-75
2021/03/04 06:12:54;;;;;;;17.13;5.73;;;4.50;99.90;;;;;;5090049;28;20076;-73
2021/03/04 06:15:22;;;;;;;16.47;5.87;;;4.60;99.90;;;;;;5092103;28;20029;-73
2021/03/04 06:17:57;;;;;;;12.53;6.10;;;4.60;99.90;;;;;;5090280;28;20133;-73
2021/03/04 06:20:23;;;;;;;16.85;5.57;;;4.60;99.90;;;;;;5089543;28;20028;-73
2021/03/04 06:22:50;;;;;;;12.50;6.20;;;4.70;99.90;;;;;;5091178;28;20024;-76
2021/03/04 06:25:17;;;;;;;19.20;5.57;;;4.70;99.90;;;;;;5090645;28;20355;-75
2021/03/04 06:27:46;;;;;;;16.90;5.20;;;4.70;99.90;;;;;;5094067;28;20031;-73
2021/03/04 06:30:16;;;;;;;13.43;5.97;;;4.80;99.90;;;;;;5093459;28;20024;-76
2021/03/04 06:32:58;;;;;;;17.00;5.20;;;4.90;99.90;;;;;;5091600;28;20024;-73
2021/03/04 06:35:33;;;;;;;17.63;6.20;;;4.90;99.90;;;;;;5092320;28;20023;-75
2021/03/04 06:37:59;;;;;;;16.08;5.55;;;4.90;99.90;;;;;;5088416;28;20050;-75
2021/03/04 06:40:32;;;;;;;21.03;6.57;;;5.00;99.90;;;;;;5085888;28;20075;-76
2021/03/04 06:42:58;;;;;;;20.70;7.63;;;5.10;99.90;;;;;;5086836;28;20024;-75
2021/03/04 06:45:32;;;;;;;20.50;7.20;;;5.10;99.90;;;;;;5080326;28;20032;-76
2021/03/04 06:48:05;;;;;;;23.43;7.90;;;5.10;99.90;;;;;;5089407;28;20107;-76
2021/03/04 06:50:31;;;;;;;16.23;7.50;;;5.10;99.90;;;;;;5089988;28;20044;-76
2021/03/04 06:52:57;;;;;;;19.80;7.33;;;5.20;99.90;;;;;;5089888;28;20556;-75
2021/03/04 06:55:22;;;;;;;23.30;7.73;;;5.20;99.90;;;;;;5088413;28;20123;-76
2021/03/04 06:57:59;;;;;;;24.70;6.83;;;5.10;99.90;;;;;;5089810;28;20110;-76
2021/03/04 07:00:25;;;;;;;16.73;6.37;;;5.20;99.90;;;;;;5090292;28;20850;-76
2021/03/04 07:02:57;;;;;;;22.40;7.17;;;5.20;99.90;;;;;;5089830;28;20032;-75
2021/03/04 07:05:26;;;;;;;16.20;6.50;;;5.30;99.90;;;;;;5091771;28;20028;-72
2021/03/04 07:07:54;;;;;;;15.13;6.50;;;5.30;99.90;;;;;;5091273;28;20028;-74
2021/03/04 07:10:21;;;;;;;13.47;5.90;;;5.30;99.90;;;;;;5089349;28;20035;-72
2021/03/04 07:12:47;;;;;;;13.97;5.90;;;5.40;99.90;;;;;;5090717;28;20020;-72
2021/03/04 07:15:14;;;;;;;13.03;6.27;;;5.40;99.90;;;;;;5097765;28;20023;-72
2021/03/04 07:17:42;;;;;;;14.93;6.47;;;5.40;99.90;;;;;;5092111;28;20407;-71
2021/03/04 07:20:13;;;;;;;14.67;6.73;;;5.40;99.90;;;;;;5086087;28;20020;-72
2021/03/04 07:22:41;;;;;;;18.60;6.00;;;5.50;99.90;;;;;;5088350;28;20527;-72
2021/03/04 07:25:07;;;;;;;23.73;6.60;;;5.50;99.90;;;;;;5088976;28;20110;-72
2021/03/04 07:27:34;;;;;;;15.90;6.80;;;5.60;99.90;;;;;;5090138;28;20076;-73
2021/03/04 07:29:59;;;;;;;15.13;5.90;;;5.60;99.90;;;;;;5102966;28;20056;-72
2021/03/04 07:32:25;;;;;;;19.10;5.90;;;5.70;99.90;;;;;;5088811;28;20803;-75
2021/03/04 07:34:52;;;;;;;18.13;6.03;;;5.80;99.90;;;;;;5089439;28;20032;-72
2021/03/04 07:37:18;;;;;;;23.60;6.17;;;5.90;99.90;;;;;;5088701;28;20024;-72
2021/03/04 07:39:47;;;;;;;14.57;6.07;;;5.90;99.90;;;;;;5092319;28;20563;-71
2021/03/04 07:42:16;;;;;;;15.10;6.17;;;6.00;99.90;;;;;;5090831;28;20395;-72
2021/03/04 07:44:42;;;;;;;16.13;6.23;;;6.10;99.90;;;;;;5090778;28;20027;-72
2021/03/04 07:47:08;;;;;;;10.93;5.57;;;6.10;99.90;;;;;;5090277;28;20029;-71
2021/03/04 07:49:45;;;;;;;14.40;6.13;;;6.20;99.90;;;;;;5090534;28;20055;-72
2021/03/04 07:52:11;;;;;;;17.50;5.50;;;6.20;99.90;;;;;;5090383;28;20047;-72
2021/03/04 07:54:38;;;;;;;13.67;5.73;;;6.30;99.90;;;;;;5092624;28;20016;-72
2021/03/04 07:57:11;;;;;;;16.43;5.27;;;6.40;99.90;;;;;;5094496;28;20008;-71
2021/03/04 07:59:51;;;;;;;18.80;6.23;;;6.40;99.90;;;;;;5094930;28;20016;-72
2021/03/04 08:02:33;;;;;;;11.23;5.27;;;6.50;99.90;;;;;;5093497;28;20055;-72
2021/03/04 08:05:04;;;;;;;12.47;5.50;;;6.60;99.90;;;;;;5095005;28;20419;-72
2021/03/04 08:07:30;;;;;;;9.60;4.77;;;6.70;99.90;;;;;;5078723;28;20024;-71
2021/03/04 08:10:05;;;;;;;11.13;5.20;;;6.80;99.90;;;;;;5095035;28;20065;-72
2021/03/04 08:12:31;;;;;;;13.73;5.47;;;6.90;99.90;;;;;;5085627;28;20028;-71
2021/03/04 08:14:57;;;;;;;20.27;6.70;;;6.90;99.90;;;;;;5094929;28;20067;-71
2021/03/04 08:17:35;;;;;;;16.20;5.07;;;7.00;99.90;;;;;;5093810;28;20065;-71
2021/03/04 08:20:11;;;;;;;16.50;5.40;;;7.10;99.90;;;;;;5094781;28;20055;-72
2021/03/04 08:22:49;;;;;;;12.20;5.27;;;7.20;99.90;;;;;;5091529;28;20028;-75
2021/03/04 08:25:24;;;;;;;22.40;6.17;;;7.30;99.90;;;;;;5092317;28;20024;-75
2021/03/04 08:27:51;;;;;;;14.18;5.63;;;7.50;99.90;;;;;;5091452;28;20024;-75
2021/03/04 08:30:32;;;;;;;15.77;5.33;;;7.50;99.90;;;;;;5092024;28;20115;-75
2021/03/04 08:33:10;;;;;;;19.23;5.17;;;7.70;99.90;;;;;;5093356;28;20069;-72
2021/03/04 08:35:40;;;;;;;7.93;4.43;;;7.80;99.90;;;;;;5092943;28;20437;-72
2021/03/04 08:38:08;;;;;;;15.23;4.97;;;7.90;99.90;;;;;;5074170;28;20028;-72
2021/03/04 08:40:51;;;;;;;11.63;4.80;;;7.90;99.90;;;;;;5073976;28;20031;-72
2021/03/04 08:43:19;;;;;;;9.50;5.20;;;8.00;99.90;;;;;;5074550;28;20027;-72
2021/03/04 08:45:49;;;;;;;16.93;5.77;;;8.10;99.90;;;;;;5074060;28;20025;-72
2021/03/04 08:48:15;;;;;;;16.37;6.73;;;8.20;99.90;;;;;;5074366;28;20346;-72
2021/03/04 08:50:46;;;;;;;15.70;5.50;;;8.40;99.90;;;;;;5073968;28;20052;-72
2021/03/04 08:53:17;;;;;;;10.27;5.77;;;8.50;99.90;;;;;;5073996;28;20031;-72
2021/03/04 08:55:47;;;;;;;11.77;5.60;;;8.60;99.90;;;;;;5074136;28;20139;-72
2021/03/04 08:58:14;;;;;;;14.43;6.27;;;8.70;99.90;;;;;;5073789;28;20063;-72
2021/03/04 09:00:39;;;;;;;12.57;6.17;;;8.90;99.90;;;;;;5076664;28;20141;-72
2021/03/04 09:03:11;;;;;;;12.13;6.07;;;9.00;99.90;;;;;;5093097;28;20508;-72
2021/03/04 09:05:38;;;;;;;17.47;6.37;;;9.10;99.90;;;;;;5092751;28;20043;-72
2021/03/04 09:08:12;;;;;;;12.87;6.57;;;9.20;99.90;;;;;;5092715;28;20047;-72
2021/03/04 09:10:49;;;;;;;17.37;7.60;;;9.30;99.90;;;;;;5094124;28;20043;-72
2021/03/04 09:13:33;;;;;;;13.30;6.60;;;9.50;99.90;;;;;;5093781;28;20028;-71
2021/03/04 09:16:05;;;;;;;16.83;6.50;;;9.60;99.60;;;;;;5092508;28;20114;-72
2021/03/04 09:18:40;;;;;;;11.93;6.17;;;9.80;99.90;;;;;;5093758;28;20081;-72
2021/03/04 09:21:10;;;;;;;14.98;5.85;;;10.00;98.10;;;;;;5092128;28;20036;-71
2021/03/04 09:23:36;;;;;;;10.43;6.07;;;10.00;96.60;;;;;;5093315;28;20039;-72
2021/03/04 09:26:02;;;;;;;14.67;6.33;;;10.10;95.40;;;;;;5108738;28;20038;-72
2021/03/04 09:28:28;;;;;;;14.23;6.30;;;10.20;94.40;;;;;;5092640;28;20020;-72
2021/03/04 09:30:53;;;;;;;13.40;6.30;;;10.20;92.50;;;;;;5077080;28;20109;-72
2021/03/04 09:33:24;;;;;;;14.33;6.40;;;10.30;91.40;;;;;;5093509;28;20024;-72
2021/03/04 09:35:59;;;;;;;15.43;7.13;;;10.30;91.80;;;;;;5091947;28;20024;-72
2021/03/04 09:38:26;;;;;;;11.82;6.22;;;10.30;90.80;;;;;;5093194;28;20020;-71
2021/03/04 09:40:53;;;;;;;14.03;6.47;;;10.40;90.20;;;;;;5093072;28;20056;-72
2021/03/04 09:43:19;;;;;;;20.00;6.87;;;10.40;90.30;;;;;;5093282;28;20024;-71
2021/03/04 09:45:53;;;;;;;12.83;6.53;;;10.50;90.30;;;;;;5093116;28;20073;-76
2021/03/04 09:48:37;;;;;;;16.80;6.93;;;10.60;88.80;;;;;;5095770;28;20024;-72
2021/03/04 09:51:03;;;;;;;19.40;7.10;;;10.60;90.20;;;;;;5091464;28;20138;-72
2021/03/04 09:53:29;;;;;;;21.47;6.90;;;10.60;89.70;;;;;;5091488;28;20127;-72
2021/03/04 09:55:55;;;;;;;16.10;7.57;;;10.60;89.70;;;;;;5092160;28;20027;-71
2021/03/04 09:58:22;;;;;;;21.83;8.07;;;10.70;87.30;;;;;;5090372;28;20162;-72
2021/03/04 10:00:57;;;;;;;13.00;7.43;;;10.80;87.30;;;;;;5092079;28;20024;-72
2021/03/04 10:03:32;;;;;;;14.63;7.18;;;10.80;86.40;;;;;;5091688;28;20023;-72
2021/03/04 10:05:57;;;;;;;16.58;8.30;;;10.90;83.80;;;;;;5089789;28;20018;-72
2021/03/04 10:08:23;;;;;;;16.80;8.60;;;11.00;84.10;;;;;;5090529;28;20412;-72
2021/03/04 10:10:51;;;;;;;14.73;7.60;;;10.90;85.60;;;;;;5088803;28;20431;-72
2021/03/04 10:13:30;;;;;;;15.63;7.33;;;10.90;84.90;;;;;;5088919;28;20043;-72
2021/03/04 10:16:18;;;;;;;13.13;6.80;;;10.90;83.60;;;;;;5086358;28;20028;-72
2021/03/04 10:18:48;;;;;;;14.47;7.17;;;10.90;82.50;;;;;;5090026;28;20269;-72
2021/03/04 10:21:16;;;;;;;14.47;7.10;;;10.90;84.00;;;;;;5090661;28;20040;-71
2021/03/04 10:23:45;;;;;;;13.23;7.17;;;10.90;83.30;;;;;;5096368;28;20027;-71
2021/03/04 10:26:11;;;;;;;18.90;7.07;;;10.90;81.60;;;;;;5100985;28;20488;-71
2021/03/04 10:28:37;;;;;;;13.07;6.73;;;10.90;82.70;;;;;;5089101;28;20164;-74
2021/03/04 10:31:02;;;;;;;17.67;7.40;;;11.00;83.60;;;;;;5089752;28;20040;-73
2021/03/04 10:33:28;;;;;;;15.70;6.20;;;11.20;84.20;;;;;;5088923;28;20024;-73
2021/03/04 10:35:54;;;;;;;12.77;6.23;;;11.40;82.10;;;;;;5090830;28;20058;-72
2021/03/04 10:38:19;;;;;;;11.90;6.37;;;11.70;79.80;;;;;;5089592;28;20046;-72
2021/03/04 10:40:45;;;;;;;12.65;5.70;;;11.90;77.80;;;;;;5090363;28;20523;-73
2021/03/04 10:43:11;;;;;;;11.77;6.65;;;12.10;76.10;;;;;;5090622;28;20032;-73
2021/03/04 10:45:36;;;;;;;13.38;6.53;;;12.30;74.50;;;;;;5089538;28;20077;-73
2021/03/04 10:48:02;;;;;;;16.23;6.85;;;12.60;75.40;;;;;;5095633;28;20391;-73
2021/03/04 10:50:28;;;;;;;10.95;6.60;;;12.80;72.10;;;;;;5110151;28;20127;-72
2021/03/04 10:52:53;;;;;;;15.60;6.57;;;13.00;71.20;;;;;;5091975;28;20228;-73
2021/03/04 10:55:19;;;;;;;12.98;6.88;;;13.20;70.50;;;;;;5091554;28;20024;-73
2021/03/04 10:57:45;;;;;;;14.43;6.72;;;13.30;69.90;;;;;;5091933;28;20089;-73
2021/03/04 11:00:12;;;;;;;17.50;6.10;;;13.30;68.70;;;;;;5091649;28;20024;-73
2021/03/04 11:02:38;;;;;;;13.13;6.72;;;13.50;67.50;;;;;;5090080;28;20384;-75
2021/03/04 11:05:07;;;;;;;12.45;6.68;;;13.60;68.70;;;;;;5088715;28;20040;-76
2021/03/04 11:07:34;;;;;;;11.75;6.25;;;13.60;67.80;;;;;;5088925;28;20103;-76
2021/03/04 11:10:00;;;;;;;11.35;6.93;;;13.80;67.80;;;;;;5089335;28;20032;-76
2021/03/04 11:12:25;;;;;;;15.95;6.65;;;13.80;67.60;;;;;;5088934;28;20035;-75
2021/03/04 11:14:51;;;;;;;12.57;6.93;;;14.00;65.30;;;;;;5088574;28;20385;-75
2021/03/04 11:17:17;;;;;;;10.80;6.55;;;14.10;65.90;;;;;;5088991;28;20396;-75
2021/03/04 11:19:43;;;;;;;12.93;6.47;;;14.20;65.40;;;;;;5089370;28;20476;-76
2021/03/04 11:22:09;;;;;;;13.15;6.75;;;14.20;64.80;;;;;;5089062;28;20035;-76
2021/03/04 11:24:36;;;;;;;12.70;6.63;;;14.40;65.60;;;;;;5089181;28;20473;-75
2021/03/04 11:27:05;;;;;;;16.92;7.05;;;14.60;64.80;;;;;;5087972;28;20032;-76
2021/03/04 11:29:30;;;;;;;11.77;7.13;;;14.70;66.30;;;;;;5092373;28;20038;-76
2021/03/04 11:31:56;;;;;;;12.60;6.45;;;14.60;62.90;;;;;;5092959;28;20379;-75
2021/03/04 11:34:22;;;;;;;16.42;7.38;;;14.60;64.20;;;;;;5088998;28;20028;-75
2021/03/04 11:36:47;;;;;;;14.75;7.45;;;14.70;62.40;;;;;;5092810;28;20024;-76
2021/03/04 11:39:13;;;;;;;11.25;6.45;;;15.00;59.90;;;;;;5092430;28;20111;-76
2021/03/04 11:41:39;;;;;;;14.38;7.18;;;15.00;61.90;;;;;;5093297;28;20035;-76
2021/03/04 11:44:04;;;;;;;15.13;6.10;;;15.10;59.30;;;;;;5093159;28;20697;-75
2021/03/04 11:46:30;;;;;;;14.20;6.35;;;15.00;60.00;;;;;;5092754;28;20183;-76
2021/03/04 11:48:55;;;;;;;14.55;7.35;;;15.00;59.60;;;;;;5093287;28;20034;-75
2021/03/04 11:51:21;;;;;;;17.98;6.32;;;15.10;61.70;;;;;;5092123;28;20489;-76
2021/03/04 11:53:47;;;;;;;11.45;6.03;;;15.20;59.00;;;;;;5091940;28;20464;-74
2021/03/04 11:56:13;;;;;;;18.77;6.18;;;15.30;56.20;;;;;;5092432;28;20028;-75
2021/03/04 11:58:39;;;;;;;15.10;5.70;;;15.40;55.00;;;;;;5092558;28;20240;-75
2021/03/04 12:01:05;;;;;;;15.02;5.95;;;15.50;54.30;;;;;;5092318;28;20039;-74
2021/03/04 12:03:30;;;;;;;12.35;5.47;;;15.50;53.60;;;;;;5092770;28;20020;-74
2021/03/04 12:05:57;;;;;;;13.85;5.82;;;15.70;52.90;;;;;;5090657;28;20035;-74
2021/03/04 12:08:22;;;;;;;16.80;5.75;;;15.70;52.60;;;;;;5092205;28;20024;-75
2021/03/04 12:10:48;;;;;;;15.05;7.00;;;15.70;54.70;;;;;;5092156;28;20077;-75
2021/03/04 12:13:14;;;;;;;17.55;6.00;;;15.80;53.30;;;;;;5092318;28;20036;-75
2021/03/04 12:15:41;;;;;;;15.88;6.07;;;15.60;54.40;;;;;;5092586;28;20077;-74
2021/03/04 12:18:08;;;;;;;11.25;6.55;;;15.20;55.00;;;;;;5092382;28;20020;-74
2021/03/04 12:20:34;;;;;;;17.92;7.03;;;15.00;54.50;;;;;;5092995;28;20035;-75
2021/03/04 12:23:00;;;;;;;18.33;7.65;;;14.80;55.80;;;;;;5092460;28;20030;-75
2021/03/04 12:25:26;;;;;;;13.60;6.57;;;14.70;55.70;;;;;;5091684;28;20047;-76
2021/03/04 12:27:52;;;;;;;18.38;7.30;;;14.60;57.20;;;;;;5092691;28;20028;-75
2021/03/04 12:30:18;;;;;;;17.85;6.85;;;14.60;56.80;;;;;;5092459;28;20492;-75
2021/03/04 12:32:44;;;;;;;14.65;6.63;;;14.40;56.50;;;;;;5088351;28;20920;-75
2021/03/04 12:35:11;;;;;;;16.40;6.80;;;14.40;57.80;;;;;;5072506;28;20108;-75
2021/03/04 12:37:38;;;;;;;18.25;7.47;;;14.20;58.50;;;;;;5078191;28;20375;-75
2021/03/04 12:40:05;;;;;;;16.55;7.22;;;14.40;59.40;;;;;;5091274;28;20337;-76
2021/03/04 12:42:31;;;;;;;19.83;7.57;;;14.50;59.70;;;;;;5091872;28;20089;-75
2021/03/04 12:44:57;;;;;;;19.30;7.10;;;14.80;57.50;;;;;;5091134;28;20509;-76
2021/03/04 12:47:22;;;;;;;18.40;6.05;;;14.90;58.00;;;;;;5091180;28;20085;-75
2021/03/04 12:49:48;;;;;;;17.77;6.53;;;14.80;57.40;;;;;;5111515;28;20373;-76